Buoy 46533

sailwx.info

Track history (hours):
 
Tides and Currents Weather Stations Pressure Air Temp Water Temp Dewpoint Dewpoint Depression Visibility Wind Speed Wind Dir Waves Ship Positions

Drifting buoy 46533

Last reported at 2014-Aug-21 03:20 UTC. Time now 2014-Aug-21 06:23 UTC.
Position N 54°12' E 166°51'.

Barometer 1010.9 mb
Water temperature 12.7 ° C

Date/timePositionNaut miles runAvg speedWind from/ knotsBaromVisibWave heightAir tempDewpointWater temp
2014-Aug-21 03:20N 54°12' E 166°51'1 0.7 1010.9 12.7
2014-Aug-21 02:20N 54°13' E 166°51'1 0.7 1011.2 12.7
2014-Aug-21 00:20N 54°11' E 166°50'1 0.5 1011.2 12.6
2014-Aug-20 21:20N 54°11' E 166°53'0 0.1 1011.4 12.4
2014-Aug-20 17:20N 54°11' E 166°52'0 0.1 1010.9 12.4
2014-Aug-20 15:20N 54°11' E 166°52'1 0.3 1010.7 12.4
2014-Aug-20 13:20N 54°11' E 166°52'0 0.1 1010.6 12.4
2014-Aug-20 10:20N 54°11' E 166°51'0 0.3 1010.5 12.5
2014-Aug-20 09:20N 54°11' E 166°52'1 0.4 1010.4 12.6
2014-Aug-20 07:20N 54°10' E 166°53'0 0.1 1010.0 12.7
2014-Aug-20 04:20N 54°11' E 166°53'0 0.2 1010.0 12.6
2014-Aug-20 03:20N 54°11' E 166°53'0 0.1 1010.0 12.5
2014-Aug-20 01:20N 54°11' E 166°53'2 0.9 1010.4 12.4
2014-Aug-19 23:20N 54°09' E 166°53'0 0.0 1010.7 12.4
2014-Aug-19 21:20N 54°09' E 166°53'1 0.3 1010.7 12.3
2014-Aug-19 18:20N 54°10' E 166°54'0 0.1 1010.1 12.3
2014-Aug-19 17:20N 54°10' E 166°54'0 0.1 1010.1 12.4
2014-Aug-19 16:20N 54°10' E 166°54'0 0.4 1009.9 12.4
2014-Aug-19 15:20N 54°10' E 166°54'0 0.3 1009.9 12.4
2014-Aug-19 14:20N 54°11' E 166°55'0 0.5 1010.1 12.3
2014-Aug-19 13:20N 54°11' E 166°54'1 0.1 1010.1 12.3
2014-Aug-19 07:20N 54°10' E 166°54'1 0.5 1008.9 12.6
2014-Aug-19 05:20N 54°10' E 166°56'0 0.0 1008.7 12.8
2014-Aug-19 04:20N 54°10' E 166°56'0 0.5 1008.5 12.8
2014-Aug-19 03:20N 54°09' E 166°55'1 0.7 1008.4 12.7
2014-Aug-19 01:20N 54°10' E 166°57'0 0.5 1008.4 12.5
2014-Aug-19 00:20N 54°10' E 166°57'0 0.3 1008.7 12.4
2014-Aug-18 23:20N 54°10' E 166°57'1 0.4 1008.8 12.2
2014-Aug-18 21:20N 54°09' E 166°56'0 0.0 1008.5 12.0
2014-Aug-18 20:20N 54°09' E 166°56'0 0.3 1008.2 12.0
2014-Aug-18 19:20N 54°09' E 166°57'0 0.3 1007.8 12.0
2014-Aug-18 18:20N 54°09' E 166°57'0 0.2 1007.4 12.0
2014-Aug-18 17:20N 54°09' E 166°57'0 0.0 1007.3 12.0
2014-Aug-18 16:20N 54°09' E 166°57'0 0.3 1007.5 12.0
2014-Aug-18 15:20N 54°09' E 166°58'1 0.4 1007.4 12.0
2014-Aug-18 13:20N 54°09' E 166°59'0 0.0 1007.6 12.1
2014-Aug-18 10:20N 54°09' E 166°59'0 0.1 1007.9 12.1
2014-Aug-18 09:20N 54°09' E 166°59'1 0.1 1008.0 12.0
2014-Aug-18 04:20N 54°08' E 166°59'0 0.5 1008.3 12.1
2014-Aug-18 03:20N 54°08' E 166°59'0 0.1 1008.3 12.1
2014-Aug-18 02:20N 54°08' E 166°59'0 0.0 1008.5 12.0
2014-Aug-18 01:20N 54°08' E 166°59'1 0.6 1009.1 12.0
2014-Aug-18 00:20N 54°08' E 167°00'0 0.2 1009.2 12.1
2014-Aug-17 21:20N 54°08' E 167°01'0 0.1 1009.3 11.9
2014-Aug-17 19:20N 54°08' E 167°01'0 0.0 1009.4 11.8
2014-Aug-17 18:20N 54°08' E 167°01'0 0.0 1009.2 11.7
2014-Aug-17 17:20N 54°08' E 167°01'0 0.2 1009.0 11.7
2014-Aug-17 16:20N 54°08' E 167°01'0 0.4 1009.0 11.7
2014-Aug-17 15:20N 54°08' E 167°00'1 0.2 1008.9 11.8
2014-Aug-17 08:20N 54°07' E 167°02'0 0.1 1007.8 12.0
2014-Aug-17 04:20N 54°07' E 167°02'0 0.1 1006.8 12.4
2014-Aug-17 03:20N 54°07' E 167°02'0 0.5 1006.7 12.4
2014-Aug-17 02:20N 54°07' E 167°02'0 0.0 1006.9 12.4
2014-Aug-17 01:20N 54°07' E 167°02'0 0.5 1006.8 12.4
2014-Aug-17 00:20N 54°06' E 167°02'1 0.5 1006.6 12.4
2014-Aug-16 22:20N 54°07' E 167°03'1 0.1 1006.6 11.9
2014-Aug-16 18:20N 54°07' E 167°04'0 0.2 1005.9 11.7
2014-Aug-16 17:20N 54°07' E 167°04'0 0.3 1005.9 11.7
2014-Aug-16 16:20N 54°07' E 167°04'0 0.0 1006.2 11.8
2014-Aug-16 15:20N 54°07' E 167°04'1 0.6 1006.3 11.7
2014-Aug-16 14:20N 54°06' E 167°03'1 0.2 1006.6 11.7
2014-Aug-16 08:20N 54°06' E 167°05'0 0.0 1007.6 11.8
2014-Aug-16 07:20N 54°06' E 167°05'0 0.1 1007.4 11.9
2014-Aug-16 05:20N 54°06' E 167°05'0 0.5 1008.1 11.9
2014-Aug-16 04:20N 54°07' E 167°06'0 0.1 1008.5 11.9
2014-Aug-16 03:20N 54°07' E 167°06'0 0.1 1008.9 11.9
2014-Aug-16 01:20N 54°07' E 167°05'0 0.0 1009.6 12.0
2014-Aug-16 00:20N 54°07' E 167°05'1 0.3 1009.8 12.0
2014-Aug-15 22:20N 54°06' E 167°05'1 0.4 1010.0 12.0
2014-Aug-15 19:20N 54°06' E 167°07'1 0.6 1010.4 11.9
2014-Aug-15 18:20N 54°06' E 167°08'0 0.1 1010.4 12.0
2014-Aug-15 17:20N 54°06' E 167°08'0 0.4 1010.2 12.0
2014-Aug-15 16:20N 54°06' E 167°08'1 0.6 1010.3 12.0
2014-Aug-15 15:20N 54°07' E 167°08'1 0.8 1010.5 12.0
2014-Aug-15 14:20N 54°06' E 167°09'0 0.1 1010.4 12.0
2014-Aug-15 12:20N 54°06' E 167°09'0 0.0 1010.6 12.1
2014-Aug-15 11:20N 54°06' E 167°09'1 0.3 1010.6 12.0
2014-Aug-15 09:20N 54°06' E 167°10'1 0.2 1010.6 12.0
2014-Aug-15 06:20N 54°05' E 167°10'1 0.4 1009.9 11.9
2014-Aug-15 03:20N 54°06' E 167°12'0 0.2 1009.9 11.9
2014-Aug-15 02:20N 54°06' E 167°12'1 0.6 1010.0 12.0
2014-Aug-15 01:20N 54°07' E 167°12'0 0.3 1010.0 12.0
2014-Aug-15 00:20N 54°07' E 167°12'1 0.3 1010.0 12.0
2014-Aug-14 21:20N 54°06' E 167°13'1 0.3 1009.3 11.8
2014-Aug-14 19:20N 54°05' E 167°14'1 0.4 1008.5 11.8
2014-Aug-14 16:20N 54°06' E 167°16'0 0.3 1007.7 11.8
2014-Aug-14 15:20N 54°06' E 167°17'1 0.5 1007.4 11.8
2014-Aug-14 14:20N 54°07' E 167°17'0 0.0 1007.4 11.9
2014-Aug-14 12:20N 54°07' E 167°17'0 0.0 1007.4 12.0
2014-Aug-14 11:20N 54°07' E 167°17'0 0.1 1007.3 12.0
2014-Aug-14 09:20N 54°06' E 167°17'1 0.5 1007.2 12.0
2014-Aug-14 06:20N 54°06' E 167°19'1 0.2 1007.2 12.0
2014-Aug-14 03:20N 54°07' E 167°20'0 0.2 1007.4 12.0
2014-Aug-14 02:20N 54°07' E 167°20'0 0.5 1007.6 12.0
2014-Aug-14 01:20N 54°07' E 167°21'0 0.0 1007.8 12.1
2014-Aug-14 00:20N 54°07' E 167°21'0 0.0 1008.2 12.1
2014-Aug-13 21:20N 54°07' E 167°21'1 1.0 1008.7 12.0
2014-Aug-13 20:20N 54°07' E 167°23'0 0.1 1008.8 12.0
2014-Aug-13 19:20N 54°07' E 167°23'2 0.5 1009.1 11.9
2014-Aug-13 16:20N 54°07' E 167°26'0 0.0 1009.5 11.7
2014-Aug-13 15:20N 54°07' E 167°26'1 0.8 1009.9 11.8
2014-Aug-13 14:20N 54°08' E 167°27'0 0.0 1010.4 12.0
2014-Aug-13 13:20N 54°08' E 167°27'1 0.2 1010.9 12.0
2014-Aug-13 10:20N 54°08' E 167°27'0 0.4 1012.0 12.1
2014-Aug-13 09:20N 54°08' E 167°26'1 0.5 1012.1 12.1
2014-Aug-13 08:20N 54°08' E 167°27'0 0.2 1012.1 12.2
2014-Aug-13 07:20N 54°08' E 167°27'2 1.7 1012.0 12.3
2014-Aug-13 06:20N 54°08' E 167°30'0 0.0 1012.0 12.3
2014-Aug-13 04:20N 54°08' E 167°30'1 0.4 1012.8 12.4
2014-Aug-13 01:20N 54°08' E 167°32'1 0.8 1013.3 12.0
2014-Aug-13 00:20N 54°09' E 167°33'1 0.3 1013.5 11.7
2014-Aug-12 22:20N 54°09' E 167°33'1 0.1 1013.3 11.6
2014-Aug-12 16:20N 54°09' E 167°33'1 0.6 1012.6 11.2
2014-Aug-12 15:20N 54°09' E 167°34'1 0.6 1012.7 11.2
2014-Aug-12 13:20N 54°09' E 167°36'2 1.5 1012.8 11.2
2014-Aug-12 12:20N 54°10' E 167°38'0 0.0 1012.7 11.2
2014-Aug-12 10:20N 54°10' E 167°38'1 0.3 1012.2 11.3
2014-Aug-12 07:20N 54°10' E 167°37'0 0.0 1011.4 11.4
2014-Aug-12 06:20N 54°10' E 167°37'0 0.0 1011.1 11.4
2014-Aug-12 05:20N 54°10' E 167°37'0 0.1 1010.9 11.4
2014-Aug-12 04:20N 54°10' E 167°37'0 0.0 1010.5 11.3
2014-Aug-12 03:20N 54°10' E 167°37'1 0.7 1010.3 11.3
2014-Aug-12 02:20N 54°10' E 167°38'2 0.6 1010.3 11.3
2014-Aug-11 23:20N 54°10' E 167°41'0 0.2 1009.5 11.2
2014-Aug-11 22:20N 54°10' E 167°42'1 1.3 1009.4 11.2
2014-Aug-11 21:20N 54°11' E 167°43'0 0.1 1009.4 11.2
2014-Aug-11 19:20N 54°11' E 167°43'2 0.9 1008.6 11.2
2014-Aug-11 17:20N 54°12' E 167°42'0 0.0 1007.4 11.2
2014-Aug-11 16:20N 54°12' E 167°42'3 2.7 1006.9 11.2
2014-Aug-11 15:20N 54°10' E 167°45'1 0.2 1006.4 11.2
2014-Aug-11 10:20N 54°10' E 167°46'2 1.2 1003.5 11.3
2014-Aug-11 08:20N 54°12' E 167°49'1 1.3 1001.2 11.4
2014-Aug-11 07:20N 54°13' E 167°49'1 0.3 1000.0 11.5
2014-Aug-11 03:20N 54°13' E 167°47'   994.0 11.6
Track history (hours):
 
Tides and Currents Weather Stations Pressure Air Temp Water Temp Dewpoint Dewpoint Depression Visibility Wind Speed Wind Dir Waves Ship Positions

Drifting buoy 46533

Last reported at 2014-Aug-21 03:20 UTC. Time now 2014-Aug-21 06:23 UTC.
Position N 54°12' E 166°51'.

Barometer 1010.9 mb
Water temperature 12.7 ° C

Date/timePositionNaut miles runAvg speedWind from/ knotsBaromVisibWave heightAir tempDewpointWater temp
2014-Aug-21 03:20N 54°12' E 166°51'1 0.7 1010.9 12.7
2014-Aug-21 02:20N 54°13' E 166°51'1 0.7 1011.2 12.7
2014-Aug-21 00:20N 54°11' E 166°50'1 0.5 1011.2 12.6
2014-Aug-20 21:20N 54°11' E 166°53'0 0.1 1011.4 12.4
2014-Aug-20 17:20N 54°11' E 166°52'0 0.1 1010.9 12.4
2014-Aug-20 15:20N 54°11' E 166°52'1 0.3 1010.7 12.4
2014-Aug-20 13:20N 54°11' E 166°52'0 0.1 1010.6 12.4
2014-Aug-20 10:20N 54°11' E 166°51'0 0.3 1010.5 12.5
2014-Aug-20 09:20N 54°11' E 166°52'1 0.4 1010.4 12.6
2014-Aug-20 07:20N 54°10' E 166°53'0 0.1 1010.0 12.7
2014-Aug-20 04:20N 54°11' E 166°53'0 0.2 1010.0 12.6
2014-Aug-20 03:20N 54°11' E 166°53'0 0.1 1010.0 12.5
2014-Aug-20 01:20N 54°11' E 166°53'2 0.9 1010.4 12.4
2014-Aug-19 23:20N 54°09' E 166°53'0 0.0 1010.7 12.4
2014-Aug-19 21:20N 54°09' E 166°53'1 0.3 1010.7 12.3
2014-Aug-19 18:20N 54°10' E 166°54'0 0.1 1010.1 12.3
2014-Aug-19 17:20N 54°10' E 166°54'0 0.1 1010.1 12.4
2014-Aug-19 16:20N 54°10' E 166°54'0 0.4 1009.9 12.4
2014-Aug-19 15:20N 54°10' E 166°54'0 0.3 1009.9 12.4
2014-Aug-19 14:20N 54°11' E 166°55'0 0.5 1010.1 12.3
2014-Aug-19 13:20N 54°11' E 166°54'1 0.1 1010.1 12.3
2014-Aug-19 07:20N 54°10' E 166°54'1 0.5 1008.9 12.6
2014-Aug-19 05:20N 54°10' E 166°56'0 0.0 1008.7 12.8
2014-Aug-19 04:20N 54°10' E 166°56'0 0.5 1008.5 12.8
2014-Aug-19 03:20N 54°09' E 166°55'1 0.7 1008.4 12.7
2014-Aug-19 01:20N 54°10' E 166°57'0 0.5 1008.4 12.5
2014-Aug-19 00:20N 54°10' E 166°57'0 0.3 1008.7 12.4
2014-Aug-18 23:20N 54°10' E 166°57'1 0.4 1008.8 12.2
2014-Aug-18 21:20N 54°09' E 166°56'0 0.0 1008.5 12.0
2014-Aug-18 20:20N 54°09' E 166°56'0 0.3 1008.2 12.0
2014-Aug-18 19:20N 54°09' E 166°57'0 0.3 1007.8 12.0
2014-Aug-18 18:20N 54°09' E 166°57'0 0.2 1007.4 12.0
2014-Aug-18 17:20N 54°09' E 166°57'0 0.0 1007.3 12.0
2014-Aug-18 16:20N 54°09' E 166°57'0 0.3 1007.5 12.0
2014-Aug-18 15:20N 54°09' E 166°58'1 0.4 1007.4 12.0
2014-Aug-18 13:20N 54°09' E 166°59'0 0.0 1007.6 12.1
2014-Aug-18 10:20N 54°09' E 166°59'0 0.1 1007.9 12.1
2014-Aug-18 09:20N 54°09' E 166°59'1 0.1 1008.0 12.0
2014-Aug-18 04:20N 54°08' E 166°59'0 0.5 1008.3 12.1
2014-Aug-18 03:20N 54°08' E 166°59'0 0.1 1008.3 12.1
2014-Aug-18 02:20N 54°08' E 166°59'0 0.0 1008.5 12.0
2014-Aug-18 01:20N 54°08' E 166°59'1 0.6 1009.1 12.0
2014-Aug-18 00:20N 54°08' E 167°00'0 0.2 1009.2 12.1
2014-Aug-17 21:20N 54°08' E 167°01'0 0.1 1009.3 11.9
2014-Aug-17 19:20N 54°08' E 167°01'0 0.0 1009.4 11.8
2014-Aug-17 18:20N 54°08' E 167°01'0 0.0 1009.2 11.7
2014-Aug-17 17:20N 54°08' E 167°01'0 0.2 1009.0 11.7
2014-Aug-17 16:20N 54°08' E 167°01'0 0.4 1009.0 11.7
2014-Aug-17 15:20N 54°08' E 167°00'1 0.2 1008.9 11.8
2014-Aug-17 08:20N 54°07' E 167°02'0 0.1 1007.8 12.0
2014-Aug-17 04:20N 54°07' E 167°02'0 0.1 1006.8 12.4
2014-Aug-17 03:20N 54°07' E 167°02'0 0.5 1006.7 12.4
2014-Aug-17 02:20N 54°07' E 167°02'0 0.0 1006.9 12.4
2014-Aug-17 01:20N 54°07' E 167°02'0 0.5 1006.8 12.4
2014-Aug-17 00:20N 54°06' E 167°02'1 0.5 1006.6 12.4
2014-Aug-16 22:20N 54°07' E 167°03'1 0.1 1006.6 11.9
2014-Aug-16 18:20N 54°07' E 167°04'0 0.2 1005.9 11.7
2014-Aug-16 17:20N 54°07' E 167°04'0 0.3 1005.9 11.7
2014-Aug-16 16:20N 54°07' E 167°04'0 0.0 1006.2 11.8
2014-Aug-16 15:20N 54°07' E 167°04'1 0.6 1006.3 11.7
2014-Aug-16 14:20N 54°06' E 167°03'1 0.2 1006.6 11.7
2014-Aug-16 08:20N 54°06' E 167°05'0 0.0 1007.6 11.8
2014-Aug-16 07:20N 54°06' E 167°05'0 0.1 1007.4 11.9
2014-Aug-16 05:20N 54°06' E 167°05'0 0.5 1008.1 11.9
2014-Aug-16 04:20N 54°07' E 167°06'0 0.1 1008.5 11.9
2014-Aug-16 03:20N 54°07' E 167°06'0 0.1 1008.9 11.9
2014-Aug-16 01:20N 54°07' E 167°05'0 0.0 1009.6 12.0
2014-Aug-16 00:20N 54°07' E 167°05'1 0.3 1009.8 12.0
2014-Aug-15 22:20N 54°06' E 167°05'1 0.4 1010.0 12.0
2014-Aug-15 19:20N 54°06' E 167°07'1 0.6 1010.4 11.9
2014-Aug-15 18:20N 54°06' E 167°08'0 0.1 1010.4 12.0
2014-Aug-15 17:20N 54°06' E 167°08'0 0.4 1010.2 12.0
2014-Aug-15 16:20N 54°06' E 167°08'1 0.6 1010.3 12.0
2014-Aug-15 15:20N 54°07' E 167°08'1 0.8 1010.5 12.0
2014-Aug-15 14:20N 54°06' E 167°09'0 0.1 1010.4 12.0
2014-Aug-15 12:20N 54°06' E 167°09'0 0.0 1010.6 12.1
2014-Aug-15 11:20N 54°06' E 167°09'1 0.3 1010.6 12.0
2014-Aug-15 09:20N 54°06' E 167°10'1 0.2 1010.6 12.0
2014-Aug-15 06:20N 54°05' E 167°10'1 0.4 1009.9 11.9
2014-Aug-15 03:20N 54°06' E 167°12'0 0.2 1009.9 11.9
2014-Aug-15 02:20N 54°06' E 167°12'1 0.6 1010.0 12.0
2014-Aug-15 01:20N 54°07' E 167°12'0 0.3 1010.0 12.0
2014-Aug-15 00:20N 54°07' E 167°12'1 0.3 1010.0 12.0
2014-Aug-14 21:20N 54°06' E 167°13'1 0.3 1009.3 11.8
2014-Aug-14 19:20N 54°05' E 167°14'1 0.4 1008.5 11.8
2014-Aug-14 16:20N 54°06' E 167°16'0 0.3 1007.7 11.8
2014-Aug-14 15:20N 54°06' E 167°17'1 0.5 1007.4 11.8
2014-Aug-14 14:20N 54°07' E 167°17'0 0.0 1007.4 11.9
2014-Aug-14 12:20N 54°07' E 167°17'0 0.0 1007.4 12.0
2014-Aug-14 11:20N 54°07' E 167°17'0 0.1 1007.3 12.0
2014-Aug-14 09:20N 54°06' E 167°17'1 0.5 1007.2 12.0
2014-Aug-14 06:20N 54°06' E 167°19'1 0.2 1007.2 12.0
2014-Aug-14 03:20N 54°07' E 167°20'0 0.2 1007.4 12.0
2014-Aug-14 02:20N 54°07' E 167°20'0 0.5 1007.6 12.0
2014-Aug-14 01:20N 54°07' E 167°21'0 0.0 1007.8 12.1
2014-Aug-14 00:20N 54°07' E 167°21'0 0.0 1008.2 12.1
2014-Aug-13 21:20N 54°07' E 167°21'1 1.0 1008.7 12.0
2014-Aug-13 20:20N 54°07' E 167°23'0 0.1 1008.8 12.0
2014-Aug-13 19:20N 54°07' E 167°23'2 0.5 1009.1 11.9
2014-Aug-13 16:20N 54°07' E 167°26'0 0.0 1009.5 11.7
2014-Aug-13 15:20N 54°07' E 167°26'1 0.8 1009.9 11.8
2014-Aug-13 14:20N 54°08' E 167°27'0 0.0 1010.4 12.0
2014-Aug-13 13:20N 54°08' E 167°27'1 0.2 1010.9 12.0
2014-Aug-13 10:20N 54°08' E 167°27'0 0.4 1012.0 12.1
2014-Aug-13 09:20N 54°08' E 167°26'1 0.5 1012.1 12.1
2014-Aug-13 08:20N 54°08' E 167°27'0 0.2 1012.1 12.2
2014-Aug-13 07:20N 54°08' E 167°27'2 1.7 1012.0 12.3
2014-Aug-13 06:20N 54°08' E 167°30'0 0.0 1012.0 12.3
2014-Aug-13 04:20N 54°08' E 167°30'1 0.4 1012.8 12.4
2014-Aug-13 01:20N 54°08' E 167°32'1 0.8 1013.3 12.0
2014-Aug-13 00:20N 54°09' E 167°33'1 0.3 1013.5 11.7
2014-Aug-12 22:20N 54°09' E 167°33'1 0.1 1013.3 11.6
2014-Aug-12 16:20N 54°09' E 167°33'1 0.6 1012.6 11.2
2014-Aug-12 15:20N 54°09' E 167°34'1 0.6 1012.7 11.2
2014-Aug-12 13:20N 54°09' E 167°36'2 1.5 1012.8 11.2
2014-Aug-12 12:20N 54°10' E 167°38'0 0.0 1012.7 11.2
2014-Aug-12 10:20N 54°10' E 167°38'1 0.3 1012.2 11.3
2014-Aug-12 07:20N 54°10' E 167°37'0 0.0 1011.4 11.4
2014-Aug-12 06:20N 54°10' E 167°37'0 0.0 1011.1 11.4
2014-Aug-12 05:20N 54°10' E 167°37'0 0.1 1010.9 11.4
2014-Aug-12 04:20N 54°10' E 167°37'0 0.0 1010.5 11.3
2014-Aug-12 03:20N 54°10' E 167°37'1 0.7 1010.3 11.3
2014-Aug-12 02:20N 54°10' E 167°38'2 0.6 1010.3 11.3
2014-Aug-11 23:20N 54°10' E 167°41'0 0.2 1009.5 11.2
2014-Aug-11 22:20N 54°10' E 167°42'1 1.3 1009.4 11.2
2014-Aug-11 21:20N 54°11' E 167°43'0 0.1 1009.4 11.2
2014-Aug-11 19:20N 54°11' E 167°43'2 0.9 1008.6 11.2
2014-Aug-11 17:20N 54°12' E 167°42'0 0.0 1007.4 11.2
2014-Aug-11 16:20N 54°12' E 167°42'3 2.7 1006.9 11.2
2014-Aug-11 15:20N 54°10' E 167°45'1 0.2 1006.4 11.2
2014-Aug-11 10:20N 54°10' E 167°46'2 1.2 1003.5 11.3
2014-Aug-11 08:20N 54°12' E 167°49'1 1.3 1001.2 11.4
2014-Aug-11 07:20N 54°13' E 167°49'1 0.3 1000.0 11.5
2014-Aug-11 03:20N 54°13' E 167°47'   994.0 11.6

Dump ship's entire track history